| time (UTC) | temp F | wind direction | speed knots | gust knots | rain 1hr in | rain 24hr in | rain mn in | humidity % | barometer mb |
| 20260903190353 | 90 | 243 | 0.9 | 0.9 | 0.00 | 0.00 | 0.00 | ||
| 20260903183352 | 89 | 308 | 1.7 | 1.7 | 0.00 | 0.00 | 0.00 | ||
| 20260903181852 | 88 | 308 | 3.5 | 4.3 | 0.00 | 0.00 | 0.00 | ||
| 20260903174851 | 86 | 322 | 1.7 | 0.0 | 0.00 | 0.00 | 0.00 | ||
| 20260903173351 | 86 | 262 | 0.0 | 0.0 | 0.00 | 0.00 | 0.00 | ||
| 20260903171851 | 86 | 330 | 0.0 | 0.0 | 0.00 | 0.00 | 0.00 | ||
| 20260903170350 | 88 | 250 | 0.0 | 0.0 | 0.00 | 0.00 | 0.00 | ||
| 20260903164849 | 87 | 248 | 3.5 | 5.2 | 0.00 | 0.00 | 0.00 | ||
| 20260903163349 | 85 | 188 | 2.6 | 4.3 | 0.00 | 0.00 | 0.00 | ||
| 20260903161849 | 86 | 277 | 1.7 | 0.0 | 0.00 | 0.00 | 0.00 | ||
| 20260903154849 | 87 | 190 | 0.9 | 0.0 | 0.00 | 0.00 | 0.00 | ||
| 20260903153349 | 81 | 205 | 0.0 | 0.0 | 0.00 | 0.00 | 0.00 | ||
| 20260903151849 | 82 | 180 | 1.7 | 1.7 | 0.00 | 0.00 | 0.00 | ||
| 20260903150349 | 82 | 195 | 0.0 | 0.0 | 0.00 | 0.00 | 0.00 | ||
| 20260903144849 | 76 | 207 | 0.0 | 0.0 | 0.00 | 0.00 | 0.00 | ||
| 20260903143349 | 76 | 207 | 0.0 | 0.0 | 0.00 | 0.00 | 0.00 | ||
| 20260903141849 | 69 | 200 | 0.0 | 0.0 | 0.00 | 0.00 | 0.00 | ||
| 20260903140349 | 66 | 200 | 0.0 | 0.0 | 0.00 | 0.00 | 0.00 | ||
| 20260903134849 | 62 | 200 | 0.0 | 0.0 | 0.00 | 0.00 | 0.00 | ||
| 20260903133350 | 63 | 200 | 0.0 | 0.0 | 0.00 | 0.00 | 0.00 | ||
| 20260903131850 | 60 | 200 | 0.0 | 0.0 | 0.00 | 0.00 | 0.00 | ||
| 20260903130350 | 59 | 200 | 0.0 | 0.0 | 0.00 | 0.00 | 0.00 | ||
| 20260903124851 | 58 | 200 | 0.0 | 0.0 | 0.00 | 0.00 | 0.00 | ||
| 20260903123352 | 61 | 200 | 0.0 | 0.0 | 0.00 | 0.00 | 0.00 | ||
| 20260903121852 | 63 | 200 | 0.0 | 0.0 | 0.00 | 0.00 | 0.00 | ||
| 20260903120351 | 61 | 200 | 0.0 | 0.0 | 0.00 | 0.00 | 0.00 | ||
| 20260903114852 | 60 | 200 | 0.0 | 0.0 | 0.00 | 0.00 | 0.00 | ||
| 20260903113352 | 61 | 200 | 0.0 | 0.0 | 0.00 | 0.00 | 0.00 | ||
| 20260903111852 | 64 | 200 | 0.0 | 0.0 | 0.00 | 0.00 | 0.00 | ||
| 20260903110353 | 64 | 200 | 0.0 | 0.0 | 0.00 | 0.00 | 0.00 | ||
| 20260903104853 | 65 | 200 | 0.0 | 0.0 | 0.00 | 0.00 | 0.00 | ||
| 20260903103353 | 64 | 200 | 0.0 | 0.0 | 0.00 | 0.00 | 0.00 | ||
| 20260903101854 | 63 | 200 | 0.0 | 0.0 | 0.00 | 0.00 | 0.00 | ||
| 20260903100354 | 64 | 200 | 0.0 | 0.0 | 0.00 | 0.00 | 0.00 | ||
| 20260903094854 | 63 | 200 | 0.0 | 0.0 | 0.00 | 0.00 | 0.00 | ||
| 20260903093354 | 63 | 200 | 0.9 | 0.0 | 0.00 | 0.00 | 0.00 | ||
| 20260903091855 | 64 | 359 | 0.0 | 0.0 | 0.00 | 0.00 | 0.00 | ||
| 20260903090355 | 64 | 359 | 0.0 | 0.0 | 0.00 | 0.00 | 0.00 | ||
| 20260903084855 | 64 | 359 | 0.0 | 0.0 | 0.00 | 0.00 | 0.00 | ||
| 20260903083355 | 63 | 359 | 0.0 | 0.0 | 0.00 | 0.00 | 0.00 | ||
| 20260903081855 | 62 | 359 | 0.0 | 0.0 | 0.00 | 0.00 | 0.00 | ||
| 20260903080355 | 64 | 359 | 0.0 | 0.0 | 0.00 | 0.00 | 0.00 | ||
| 20260903074855 | 65 | 359 | 0.0 | 0.0 | 0.00 | 0.00 | 0.00 | ||
| 20260903073355 | 66 | 359 | 0.0 | 0.0 | 0.00 | 0.00 | 0.00 | ||
| 20260903071855 | 65 | 359 | 0.0 | 0.0 | 0.00 | 0.00 | 0.00 | ||
| 20260903070355 | 64 | 359 | 0.0 | 0.0 | 0.00 | 0.00 | 0.00 | ||
| 20260903064854 | 66 | 359 | 0.0 | 0.0 | 0.00 | 0.00 | 0.00 | ||
| 20260903063354 | 67 | 359 | 0.0 | 0.0 | 0.00 | 0.00 | 0.00 | ||
| 20260903061855 | 67 | 359 | 0.0 | 0.0 | 0.00 | 0.00 | 0.00 | ||
| 20260903060354 | 69 | 359 | 0.0 | 0.0 | 0.00 | 0.00 | 0.00 | ||
| 20260903054854 | 69 | 359 | 0.0 | 0.0 | 0.00 | 0.00 | 0.00 | ||
| 20260903053353 | 67 | 359 | 0.0 | 0.0 | 0.00 | 0.00 | 0.00 | ||
| 20260903051853 | 67 | 359 | 0.0 | 0.0 | 0.00 | 0.00 | 0.00 | ||
| 20260903050352 | 69 | 359 | 0.0 | 0.0 | 0.00 | 0.00 | 0.00 | ||
| 20260903044853 | 69 | 359 | 0.0 | 0.0 | 0.00 | 0.00 | 0.00 | ||
| 20260903043352 | 71 | 359 | 0.0 | 0.0 | 0.00 | 0.00 | 0.00 | ||
| 20260903041851 | 72 | 359 | 0.0 | 0.0 | 0.00 | 0.00 | 0.00 | ||
| 20260903040351 | 73 | 359 | 0.0 | 0.0 | 0.00 | 0.00 | 0.00 | ||
| 20260903034851 | 73 | 359 | 0.0 | 0.0 | 0.00 | 0.00 | 0.00 | ||
| 20260903033349 | 74 | 359 | 0.0 | 0.0 | 0.00 | 0.00 | 0.00 | ||
| 20260903031849 | 73 | 359 | 0.0 | 0.0 | 0.00 | 0.00 | 0.00 | ||
| 20260903030348 | 73 | 359 | 0.0 | 0.0 | 0.00 | 0.00 | 0.00 | ||
| 20260903024848 | 74 | 359 | 0.0 | 0.0 | 0.00 | 0.00 | 0.00 | ||
| 20260903021847 | 77 | 359 | 0.0 | 0.0 | 0.00 | 0.00 | 0.00 | ||
| 20260903014845 | 80 | 359 | 0.0 | 0.0 | 0.00 | 0.00 | 0.00 | ||
| 20260903013345 | 82 | 339 | 0.0 | 0.0 | 0.00 | 0.00 | 0.00 | ||
| 20260903011844 | 83 | 1 | 0.0 | 0.0 | 0.00 | 0.00 | 0.00 | ||
| 20260903010344 | 86 | 359 | 0.0 | 0.0 | 0.00 | 0.00 | 0.00 | ||
| 20260903004844 | 85 | 283 | 0.0 | 0.0 | 0.00 | 0.00 | 0.00 | ||
| 20260903003343 | 87 | 229 | 0.0 | 0.0 | 0.00 | 0.00 | 0.00 | ||
| 20260903001842 | 88 | 338 | 1.7 | 3.5 | 0.00 | 0.00 | 0.00 | ||
| 20260903000342 | 90 | 25 | 2.6 | 0.0 | 0.00 | 0.00 | 0.00 | ||
| 20260902234841 | 86 | 18 | 0.0 | 0.0 | 0.00 | 0.00 | 0.00 | ||
| 20260902233341 | 86 | 335 | 1.7 | 0.0 | 0.00 | 0.00 | 0.00 | ||
| 20260902231840 | 87 | 318 | 1.7 | 0.9 | 0.00 | 0.00 | 0.00 | ||
| 20260902230339 | 90 | 271 | 0.0 | 0.0 | 0.00 | 0.00 | 0.00 | ||
| 20260902224838 | 87 | 302 | 0.9 | 2.6 | 0.00 | 0.00 | 0.00 | ||
| 20260902223337 | 93 | 308 | 0.0 | 0.0 | 0.00 | 0.00 | 0.00 | ||
| 20260902221836 | 94 | 287 | 0.0 | 0.0 | 0.00 | 0.00 | 0.00 | ||
| 20260902220335 | 93 | 10 | 1.7 | 0.0 | 0.00 | 0.00 | 0.00 | ||
| 20260902213335 | 88 | 291 | 0.9 | 0.0 | 0.00 | 0.00 | 0.00 | ||
| 20260902211834 | 86 | 301 | 1.7 | 1.7 | 0.00 | 0.00 | 0.00 | ||
| 20260902210332 | 85 | 277 | 1.7 | 2.6 | 0.00 | 0.00 | 0.00 | ||
| 20260902204832 | 87 | 291 | 4.3 | 1.7 | 0.00 | 0.00 | 0.00 | ||
| 20260902203331 | 88 | 257 | 1.7 | 2.6 | 0.00 | 0.00 | 0.00 | ||
| 20260902201829 | 87 | 37 | 0.9 | 0.0 | 0.00 | 0.00 | 0.00 | ||
| 20260902200329 | 87 | 321 | 0.9 | 1.7 | 0.00 | 0.00 | 0.00 | ||
| 20260902194828 | 89 | 349 | 0.9 | 0.0 | 0.00 | 0.00 | 0.00 | ||
| 20260902193330 | 91 | 329 | 2.6 | 0.0 | 0.00 | 0.00 | 0.00 | ||
| 20260902191826 | 88 | 359 | 3.5 | 4.3 | 0.00 | 0.00 | 0.00 |